Time;durP1;ratioP1;P1;durP2;ratioP2;P2;SDS_P1;SDS_P2;PMS_P1;PMS_P2;Temp;Humidity;BMP_temperature;BMP_pressure;BME280_temperature;BME280_humidity;BME280_pressure;Samples;Min_cycle;Max_cycle;Signal;HPM_P1;HPM_P2
2022/11/03 00:00:31;;;;;;;0.50;0.50;;;;;;;9.05;87.46;100330.78;5064535;28;20037;-69
2022/11/03 00:02:56;;;;;;;0.50;0.50;;;;;;;9.07;87.41;100328.19;5065734;28;20071;-68
2022/11/03 00:08:05;;;;;;;0.43;0.43;;;;;;;9.08;87.62;100336.78;5065881;28;20076;-69
2022/11/03 00:10:31;;;;;;;0.50;0.50;;;;;;;9.05;87.58;100335.09;5065799;28;20048;-69
2022/11/03 00:12:56;;;;;;;0.40;0.40;;;;;;;9.08;87.73;100334.19;5066115;28;20028;-68
2022/11/03 00:15:22;;;;;;;0.50;0.50;;;;;;;9.12;87.45;100339.38;5065734;28;20120;-69
2022/11/03 00:17:47;;;;;;;0.45;0.45;;;;;;;9.10;87.57;100325.56;5065757;28;20036;-68
2022/11/03 00:20:12;;;;;;;0.40;0.40;;;;;;;9.12;87.64;100339.38;5065749;28;20025;-69
2022/11/03 00:22:38;;;;;;;0.40;0.40;;;;;;;9.16;87.53;100337.63;5065644;28;20033;-68
2022/11/03 00:25:03;;;;;;;0.40;0.40;;;;;;;9.18;87.57;100335.91;5065661;28;20025;-68
2022/11/03 00:27:29;;;;;;;0.40;0.40;;;;;;;9.19;87.36;100337.63;5065549;28;20025;-68
2022/11/03 00:29:54;;;;;;;0.50;0.50;;;;;;;9.21;87.68;100333.31;5065362;28;20063;-68
2022/11/03 00:32:19;;;;;;;0.40;0.40;;;;;;;9.28;87.73;100326.38;5065735;28;20107;-68
2022/11/03 00:34:45;;;;;;;0.40;0.40;;;;;;;9.32;87.65;100330.66;5065516;28;20088;-68
2022/11/03 00:37:10;;;;;;;0.40;0.40;;;;;;;9.33;87.80;100321.16;5065352;28;20062;-68
2022/11/03 00:39:35;;;;;;;0.40;0.40;;;;;;;9.32;87.76;100311.66;5065369;28;20029;-68
2022/11/03 00:42:01;;;;;;;0.40;0.40;;;;;;;9.39;87.64;100321.13;5065438;28;20025;-68
2022/11/03 00:44:26;;;;;;;0.40;0.40;;;;;;;9.42;87.53;100308.16;5065257;28;20064;-67
2022/11/03 00:46:51;;;;;;;0.40;0.40;;;;;;;9.47;87.37;100313.31;5065521;28;20024;-68
2022/11/03 00:49:17;;;;;;;0.40;0.40;;;;;;;9.48;87.62;100317.63;5065154;28;20044;-68
2022/11/03 00:51:42;;;;;;;3.03;2.72;;;;;;;9.50;87.64;100314.19;5065284;28;20051;-67
2022/11/03 00:54:08;;;;;;;0.40;0.40;;;;;;;9.50;87.45;100313.31;5065286;28;20037;-67
2022/11/03 00:56:36;;;;;;;0.40;0.40;;;;;;;9.57;87.61;100316.72;5065099;28;20028;-67
2022/11/03 00:59:03;;;;;;;0.40;0.40;;;;;;;9.61;87.45;100321.88;5065253;28;20115;-67
2022/11/03 01:01:34;;;;;;;0.40;0.40;;;;;;;9.63;87.56;100301.13;5064809;28;20473;-67
2022/11/03 01:06:49;;;;;;;0.40;0.40;;;;;;;9.77;87.38;100295.84;5065242;28;20124;-67
2022/11/03 01:09:34;;;;;;;0.50;0.50;;;;;;;9.89;86.20;100298.34;5065116;28;20488;-68
2022/11/03 01:12:08;;;;;;;0.60;0.60;;;;;;;9.83;86.32;100297.53;5065120;28;20043;-67
2022/11/03 01:14:46;;;;;;;0.88;0.88;;;;;;;9.76;86.56;100302.75;5064928;28;20017;-67
2022/11/03 01:17:16;;;;;;;0.40;0.40;;;;;;;9.80;86.14;100293.25;5065177;28;20033;-68
2022/11/03 01:19:41;;;;;;;0.40;0.40;;;;;;;9.80;86.21;100290.66;5065130;28;20025;-68
2022/11/03 01:22:07;;;;;;;0.50;0.50;;;;;;;9.86;85.89;100297.50;5064867;28;20064;-68
2022/11/03 01:24:33;;;;;;;0.30;0.30;;;;;;;9.82;86.43;100286.31;5065017;28;20040;-68
2022/11/03 01:26:59;;;;;;;0.50;0.50;;;;;;;9.85;86.50;100288.91;5064931;28;20149;-69
2022/11/03 01:29:24;;;;;;;0.50;0.50;;;;;;;9.87;86.45;100283.69;5064741;28;20048;-69
2022/11/03 01:31:49;;;;;;;0.40;0.40;;;;;;;9.92;85.81;100276.72;5064751;28;20028;-68
2022/11/03 01:34:17;;;;;;;0.40;0.40;;;;;;;9.97;85.34;100280.16;5064942;28;20052;-69
2022/11/03 01:36:43;;;;;;;0.40;0.40;;;;;;;10.05;84.87;100274.88;5064859;28;20100;-69
2022/11/03 01:39:14;;;;;;;0.40;0.40;;;;;;;10.00;85.31;100276.69;5064840;28;20029;-69
2022/11/03 01:41:41;;;;;;;0.40;0.40;;;;;;;10.04;85.39;100276.66;5064722;28;20029;-69
2022/11/03 01:44:06;;;;;;;0.40;0.40;;;;;;;10.01;85.55;100271.47;5064608;28;20037;-69
2022/11/03 01:46:32;;;;;;;0.40;0.40;;;;;;;10.16;84.60;100267.88;5064912;28;20047;-70
2022/11/03 01:49:07;;;;;;;1.80;1.73;;;;;;;10.15;84.53;100260.97;5064783;28;20029;-69
2022/11/03 01:51:35;;;;;;;0.40;0.40;;;;;;;10.03;84.87;100259.34;5064641;28;20028;-69
2022/11/03 01:54:05;;;;;;;0.40;0.40;;;;;;;10.03;85.61;100263.69;5064586;28;20053;-68
2022/11/03 01:56:34;;;;;;;0.40;0.40;;;;;;;10.00;86.15;100258.53;5064941;28;20037;-69
2022/11/03 01:58:59;;;;;;;0.47;0.47;;;;;;;10.10;85.70;100257.56;5064347;28;20507;-68
2022/11/03 02:01:25;;;;;;;0.50;0.50;;;;;;;10.11;85.79;100261.03;5064770;28;20029;-68
2022/11/03 02:03:58;;;;;;;0.50;0.50;;;;;;;10.09;86.47;100252.38;5068192;28;20041;-69
2022/11/03 02:06:26;;;;;;;0.40;0.40;;;;;;;10.17;86.15;100240.22;5068450;28;20103;-68
2022/11/03 02:09:02;;;;;;;0.50;0.50;;;;;;;10.17;86.26;100237.63;5068177;28;20052;-69
2022/11/03 02:14:14;;;;;;;0.40;0.40;;;;;;;10.16;86.54;100228.97;5068097;28;20024;-69
2022/11/03 02:16:42;;;;;;;0.43;0.43;;;;;;;10.21;86.65;100228.09;5068295;28;20039;-69
2022/11/03 02:19:22;;;;;;;0.43;0.43;;;;;;;10.25;86.26;100221.97;5068013;28;20021;-68
2022/11/03 02:21:58;;;;;;;1.50;1.40;;;;;;;10.20;86.70;100209.06;5067867;28;20055;-68
2022/11/03 02:24:30;;;;;;;0.40;0.40;;;;;;;10.25;86.92;100227.16;5067933;28;20029;-69
2022/11/03 02:26:55;;;;;;;0.60;0.60;;;;;;;10.27;86.88;100213.28;5067969;28;20029;-68
2022/11/03 02:29:21;;;;;;;0.45;0.45;;;;;;;10.48;85.64;100207.94;5067818;28;20067;-70
2022/11/03 02:32:17;;;;;;;0.40;0.40;;;;;;;10.44;85.90;100209.66;5067635;28;20021;-69
2022/11/03 02:35:18;;;;;;;0.40;0.40;;;;;;;10.39;86.01;100201.94;5067092;28;20044;-70
2022/11/03 02:37:48;;;;;;;0.40;0.40;;;;;;;10.28;86.86;100203.78;5067175;28;20528;-71
2022/11/03 02:40:45;;;;;;;0.40;0.40;;;;;;;10.25;87.08;100196.03;5067586;28;20032;-67
2022/11/03 02:43:13;;;;;;;0.70;0.70;;;;;;;10.28;87.09;100196.88;5063050;28;20037;-68
2022/11/03 02:45:38;;;;;;;0.70;0.70;;;;;;;10.37;86.54;100192.44;5067241;28;20147;-69
2022/11/03 02:48:05;;;;;;;1.95;1.85;;;;;;;10.36;86.70;100189.00;5067139;28;20016;-68
2022/11/03 02:50:32;;;;;;;0.40;0.40;;;;;;;10.33;87.13;100186.44;5066978;28;20029;-68
2022/11/03 02:52:58;;;;;;;0.40;0.40;;;;;;;10.34;87.10;100197.66;5067015;28;20054;-68
2022/11/03 02:55:50;;;;;;;0.40;0.40;;;;;;;10.37;87.11;100195.91;5067170;28;20058;-68
2022/11/03 02:58:16;;;;;;;;;;;;;;;10.46;86.89;100181.09;5067348;28;20021;-68
2022/11/03 03:00:52;;;;;;;0.40;0.40;;;;;;;10.46;86.66;100181.09;5065756;28;19915;-68
2022/11/03 03:03:29;;;;;;;4.22;3.83;;;;;;;10.50;86.92;100181.09;5065484;28;20833;-70
2022/11/03 03:06:09;;;;;;;1.27;1.25;;;;;;;10.63;85.60;100167.94;5066688;28;20040;-69
2022/11/03 03:08:39;;;;;;;0.40;0.40;;;;;;;10.54;86.42;100163.75;5066821;28;20031;-68
2022/11/03 03:11:05;;;;;;;0.40;0.40;;;;;;;10.51;86.69;100159.44;5066884;28;20053;-70
2022/11/03 03:13:31;;;;;;;9.73;2.58;;;;;;;10.49;86.65;100157.75;5065842;28;20032;-68
2022/11/03 03:16:04;;;;;;;0.40;0.40;;;;;;;10.70;85.50;100148.84;5066801;28;20027;-68
2022/11/03 03:18:39;;;;;;;0.30;0.30;;;;;;;10.76;85.07;100155.66;5065408;28;20024;-70
2022/11/03 03:21:12;;;;;;;0.40;0.40;;;;;;;10.57;85.85;100142.06;5066665;28;20029;-69
2022/11/03 03:23:48;;;;;;;0.40;0.40;;;;;;;10.70;85.26;100141.03;5066460;28;20025;-68
2022/11/03 03:26:22;;;;;;;2.28;1.80;;;;;;;10.57;86.05;100142.06;5066356;28;20025;-70
2022/11/03 03:29:13;;;;;;;0.40;0.40;;;;;;;10.50;86.19;100142.16;5065299;28;20028;-70
2022/11/03 03:31:43;;;;;;;1.38;1.27;;;;;;;10.47;86.66;100143.91;5065705;28;20029;-69
2022/11/03 03:34:10;;;;;;;1.95;1.85;;;;;;;10.43;87.13;100148.28;5065135;28;20017;-68
2022/11/03 03:36:38;;;;;;;0.40;0.40;;;;;;;10.53;87.12;100149.03;5065872;28;20048;-69
2022/11/03 03:39:07;;;;;;;0.40;0.40;;;;;;;10.53;86.57;100144.69;5066017;28;20020;-69
2022/11/03 03:41:34;;;;;;;0.68;0.68;;;;;;;10.72;86.27;100136.66;5065975;28;20067;-69
2022/11/03 03:44:04;;;;;;;0.40;0.40;;;;;;;11.01;83.98;100134.53;5065799;28;20039;-69
2022/11/03 03:46:37;;;;;;;0.40;0.40;;;;;;;10.64;84.96;100139.38;5066078;28;20024;-68
2022/11/03 03:49:03;;;;;;;0.40;0.40;;;;;;;10.62;85.69;100135.09;5065887;28;20032;-68
2022/11/03 03:51:30;;;;;;;0.40;0.40;;;;;;;10.80;84.89;100133.97;5065744;28;20463;-69
2022/11/03 03:53:56;;;;;;;0.40;0.40;;;;;;;10.75;84.64;100118.44;5065995;28;20047;-70
2022/11/03 03:56:31;;;;;;;0.40;0.40;;;;;;;10.62;84.89;100127.31;5065935;28;20025;-69
2022/11/03 03:58:57;;;;;;;0.40;0.40;;;;;;;10.64;85.59;100128.97;5065753;28;20059;-69
2022/11/03 04:01:22;;;;;;;0.40;0.40;;;;;;;10.53;85.63;100130.84;5065799;28;20025;-69
2022/11/03 04:03:47;;;;;;;0.40;0.40;;;;;;;10.65;84.72;100142.84;5065686;28;20025;-70
2022/11/03 04:06:13;;;;;;;0.30;0.30;;;;;;;10.54;85.07;100142.97;5065739;28;20449;-69
2022/11/03 04:08:38;;;;;;;0.40;0.40;;;;;;;10.45;85.27;100140.47;5065655;28;20029;-70
2022/11/03 04:22:15;;;;;;;0.40;0.40;;;;;;;10.44;84.86;100152.56;5065531;28;20595;-67
2022/11/03 04:24:41;;;;;;;0.40;0.40;;;;;;;10.46;85.03;100157.75;5065125;28;20029;-71
2022/11/03 04:27:24;;;;;;;4.93;2.58;;;;;;;10.38;85.09;100139.66;5065318;28;20076;-71
2022/11/03 04:29:51;;;;;;;0.40;0.40;;;;;;;10.41;85.12;100130.09;5065129;28;20035;-69
2022/11/03 04:32:17;;;;;;;0.40;0.40;;;;;;;10.40;85.03;100125.78;5065260;28;20059;-69
2022/11/03 04:34:45;;;;;;;0.40;0.40;;;;;;;10.58;83.82;100113.50;5065445;28;20080;-69
2022/11/03 04:37:14;;;;;;;0.57;0.57;;;;;;;10.35;84.51;100104.22;5065525;28;20028;-68
2022/11/03 04:39:40;;;;;;;1.30;1.20;;;;;;;10.53;83.79;100112.69;5064339;28;20044;-70
2022/11/03 04:42:20;;;;;;;0.40;0.40;;;;;;;10.60;82.08;100103.09;5065161;28;20047;-68
2022/11/03 04:44:47;;;;;;;0.40;0.40;;;;;;;10.55;82.75;100077.19;5065104;28;20029;-69
2022/11/03 04:47:14;;;;;;;0.70;0.70;;;;;;;10.44;82.56;100084.22;5065225;28;20063;-68
2022/11/03 04:49:40;;;;;;;0.30;0.30;;;;;;;10.41;82.58;100088.56;5064947;28;20028;-69
2022/11/03 04:52:16;;;;;;;0.40;0.40;;;;;;;10.46;82.71;100080.78;5065007;28;20029;-70
2022/11/03 04:54:43;;;;;;;0.40;0.40;;;;;;;10.33;82.88;100084.38;5065402;28;20041;-69
2022/11/03 04:57:13;;;;;;;0.50;0.50;;;;;;;10.07;84.29;100080.34;5064936;28;20053;-69
2022/11/03 04:59:40;;;;;;;3.33;1.30;;;;;;;10.03;84.51;100079.53;5064751;28;20021;-68
2022/11/03 05:02:13;;;;;;;0.50;0.50;;;;;;;10.22;83.48;100087.97;5064778;28;20045;-68
2022/11/03 05:04:38;;;;;;;3.50;2.85;;;;;;;10.31;83.93;100086.97;5065051;28;20025;-70
2022/11/03 05:07:24;;;;;;;0.40;0.40;;;;;;;10.17;83.95;100100.13;5064785;28;20059;-69
2022/11/03 05:09:50;;;;;;;0.40;0.40;;;;;;;10.44;83.09;100105.00;5064983;28;20116;-70
2022/11/03 05:12:15;;;;;;;0.40;0.40;;;;;;;10.11;84.08;100095.00;5064841;28;20097;-67
2022/11/03 05:14:41;;;;;;;0.40;0.40;;;;;;;10.51;82.14;100076.38;5064820;28;20519;-70
2022/11/03 05:17:17;;;;;;;0.40;0.40;;;;;;;10.19;83.26;100081.94;5063603;28;20453;-68
2022/11/03 05:19:42;;;;;;;0.50;0.50;;;;;;;10.26;83.00;100089.63;5065101;28;20025;-70
2022/11/03 05:22:17;;;;;;;0.40;0.40;;;;;;;10.21;83.26;100090.59;5064817;28;20040;-68
2022/11/03 05:24:43;;;;;;;0.40;0.40;;;;;;;10.23;82.90;100079.31;5064560;28;20107;-69
2022/11/03 05:27:18;;;;;;;0.40;0.40;;;;;;;10.34;82.41;100076.56;5064559;28;20060;-70
2022/11/03 05:29:43;;;;;;;0.40;0.40;;;;;;;10.26;82.78;100076.66;5064774;28;20033;-70
2022/11/03 05:32:21;;;;;;;0.40;0.40;;;;;;;10.02;83.90;100077.81;5064666;28;20035;-70
2022/11/03 05:34:50;;;;;;;0.40;0.40;;;;;;;10.08;83.75;100072.53;5064861;28;20040;-69
2022/11/03 05:37:30;;;;;;;0.40;0.40;;;;;;;10.12;83.60;100063.88;5066648;28;20032;-69
2022/11/03 05:40:21;;;;;;;0.55;0.55;;;;;;;10.21;82.51;100055.09;5068654;28;20028;-70
2022/11/03 05:42:55;;;;;;;0.40;0.40;;;;;;;9.99;83.21;100054.50;5068548;28;20059;-69
2022/11/03 05:45:25;;;;;;;0.40;0.40;;;;;;;10.32;82.22;100060.16;5068521;28;20057;-70
2022/11/03 05:47:54;;;;;;;0.40;0.40;;;;;;;10.25;82.34;100066.31;5068460;28;20035;-68
2022/11/03 05:50:24;;;;;;;0.40;0.40;;;;;;;10.11;82.71;100059.53;5068420;28;20035;-66
2022/11/03 05:52:52;;;;;;;0.50;0.50;;;;;;;10.34;82.11;100063.59;5067174;28;20396;-69
2022/11/03 05:55:24;;;;;;;0.40;0.40;;;;;;;10.10;82.50;100057.84;5068402;28;20092;-68
2022/11/03 05:57:51;;;;;;;0.40;0.40;;;;;;;10.02;83.27;100063.13;5068048;28;20412;-66
2022/11/03 06:00:31;;;;;;;0.98;0.98;;;;;;;10.21;82.39;100067.25;5068128;28;20032;-69
2022/11/03 06:02:57;;;;;;;0.88;0.88;;;;;;;9.95;83.38;100053.69;5068019;28;20049;-66
2022/11/03 06:05:24;;;;;;;0.40;0.40;;;;;;;10.27;81.82;100047.25;5068218;28;20029;-70
2022/11/03 06:07:53;;;;;;;0.40;0.40;;;;;;;10.19;81.72;100036.13;5068380;28;20028;-68
2022/11/03 06:10:27;;;;;;;0.40;0.40;;;;;;;10.04;82.58;100042.34;5068451;28;20036;-66
2022/11/03 06:12:55;;;;;;;0.40;0.40;;;;;;;10.03;82.68;100048.41;5067908;28;20032;-67
2022/11/03 06:15:32;;;;;;;0.40;0.40;;;;;;;9.88;83.31;100050.31;5068015;28;20109;-67
2022/11/03 06:17:59;;;;;;;0.40;0.40;;;;;;;9.92;83.51;100040.75;5067949;28;20059;-67
2022/11/03 06:20:25;;;;;;;5.28;3.65;;;;;;;10.11;82.65;100036.19;5067941;28;20031;-69
2022/11/03 06:22:54;;;;;;;0.40;0.40;;;;;;;10.36;81.19;100041.09;5067616;28;20032;-67
2022/11/03 06:25:35;;;;;;;0.40;0.40;;;;;;;10.04;82.35;100032.84;5067825;28;20036;-69
2022/11/03 06:28:03;;;;;;;0.50;0.50;;;;;;;10.22;81.44;100024.84;5067667;28;20032;-69
2022/11/03 06:30:32;;;;;;;0.40;0.40;;;;;;;10.37;80.83;100040.19;5067718;28;20098;-68
2022/11/03 06:33:05;;;;;;;0.40;0.40;;;;;;;10.31;81.13;100024.72;5067656;28;20060;-69
2022/11/03 06:35:31;;;;;;;0.40;0.40;;;;;;;10.34;80.65;100027.25;5067762;28;20037;-70
2022/11/03 06:37:56;;;;;;;0.85;0.85;;;;;;;10.07;81.52;100026.75;5067560;28;20108;-67
2022/11/03 06:40:24;;;;;;;0.40;0.40;;;;;;;10.19;81.20;100024.88;5067693;28;20036;-68
2022/11/03 06:42:53;;;;;;;0.40;0.40;;;;;;;10.34;80.40;100036.78;5067318;28;20029;-69
2022/11/03 06:45:22;;;;;;;0.40;0.40;;;;;;;10.23;81.30;100027.41;5067527;28;20033;-69
2022/11/03 06:47:48;;;;;;;0.40;0.40;;;;;;;10.17;81.10;100023.16;5067475;28;20059;-66
2022/11/03 06:50:24;;;;;;;0.40;0.40;;;;;;;10.17;80.97;100020.56;5067337;28;20059;-67
2022/11/03 06:52:52;;;;;;;0.40;0.40;;;;;;;10.04;82.08;100022.47;5067038;28;20032;-67
2022/11/03 06:55:26;;;;;;;0.40;0.40;;;;;;;10.06;81.65;100017.25;5067353;28;20039;-66
2022/11/03 06:57:59;;;;;;;1.42;1.35;;;;;;;10.24;80.19;100023.09;5067450;28;20021;-66
2022/11/03 07:00:27;;;;;;;0.40;0.40;;;;;;;10.08;81.38;100031.03;5067243;28;20021;-66
2022/11/03 07:03:02;;;;;;;0.57;0.57;;;;;;;10.02;81.73;100042.38;5067002;28;20048;-65
2022/11/03 07:05:30;;;;;;;1.27;0.65;;;;;;;10.16;81.36;100046.50;5067234;28;20120;-65
2022/11/03 07:08:13;;;;;;;0.40;0.40;;;;;;;9.97;82.20;100033.78;5067385;28;20032;-66
2022/11/03 07:10:38;;;;;;;0.40;0.40;;;;;;;10.05;82.01;100025.91;5067196;28;20111;-67
2022/11/03 07:13:12;;;;;;;0.40;0.40;;;;;;;10.29;80.48;100026.47;5067028;28;20028;-68
2022/11/03 07:15:38;;;;;;;0.40;0.40;;;;;;;10.15;80.96;100019.72;5067018;28;20031;-68
2022/11/03 07:18:30;;;;;;;0.77;0.77;;;;;;;10.09;81.34;100021.53;5067019;28;20050;-67
2022/11/03 07:20:57;;;;;;;0.50;0.50;;;;;;;10.08;81.68;100019.84;5063810;28;20037;-68
2022/11/03 07:23:25;;;;;;;0.40;0.40;;;;;;;10.06;82.31;100014.66;5066791;28;20508;-68
2022/11/03 07:25:58;;;;;;;0.47;0.47;;;;;;;10.22;81.81;100015.34;5066721;28;20036;-67
2022/11/03 07:28:30;;;;;;;0.40;0.40;;;;;;;10.66;78.98;100000.03;5065465;28;20078;-68
2022/11/03 07:30:58;;;;;;;0.40;0.40;;;;;;;10.64;78.84;100006.97;5065551;28;20025;-70
2022/11/03 07:33:26;;;;;;;0.40;0.40;;;;;;;10.59;79.06;100026.09;5066992;28;20024;-67
2022/11/03 07:35:55;;;;;;;0.40;0.40;;;;;;;10.39;80.10;100019.41;5067009;28;20347;-66
2022/11/03 07:38:22;;;;;;;0.50;0.50;;;;;;;10.30;80.88;100002.25;5066619;28;20091;-66
2022/11/03 07:40:50;;;;;;;0.40;0.40;;;;;;;10.51;80.11;100014.06;5066705;28;20025;-66
2022/11/03 07:43:23;;;;;;;0.40;0.40;;;;;;;10.50;80.68;100016.69;5066542;28;20096;-68
2022/11/03 07:45:51;;;;;;;0.40;0.40;;;;;;;10.64;79.40;100012.16;5065094;28;20035;-67
2022/11/03 07:48:34;;;;;;;0.40;0.40;;;;;;;10.66;79.40;99984.44;5066444;28;20071;-66
2022/11/03 07:51:14;;;;;;;0.40;0.40;;;;;;;10.70;78.83;100021.63;5066502;28;20035;-69
2022/11/03 07:53:44;;;;;;;0.40;0.40;;;;;;;10.71;79.03;100022.44;5066340;28;20067;-66
2022/11/03 07:56:37;;;;;;;0.40;0.40;;;;;;;10.65;79.28;100037.22;5066392;28;20029;-66
2022/11/03 07:59:10;;;;;;;3.33;3.13;;;;;;;10.72;79.21;100029.38;5063218;28;20040;-63
2022/11/03 08:01:39;;;;;;;0.40;0.40;;;;;;;10.71;79.75;100033.69;5066488;28;20033;-65
2022/11/03 08:04:11;;;;;;;0.40;0.40;;;;;;;10.77;79.92;100053.50;5066227;28;20106;-66
2022/11/03 08:06:37;;;;;;;8.40;2.25;;;;;;;10.82;79.94;100048.25;5066217;28;20079;-65
2022/11/03 08:09:02;;;;;;;0.40;0.40;;;;;;;10.85;79.57;100041.28;5065965;28;20025;-65
2022/11/03 08:11:28;;;;;;;0.40;0.40;;;;;;;10.91;79.58;100038.59;5066073;28;20078;-67
2022/11/03 08:13:53;;;;;;;0.40;0.40;;;;;;;10.96;78.82;100046.28;5066191;28;20097;-66
2022/11/03 08:16:19;;;;;;;0.40;0.40;;;;;;;10.93;78.54;100029.94;5065713;28;20171;-65
2022/11/03 08:18:45;;;;;;;0.40;0.40;;;;;;;10.93;78.39;100042.91;5065878;28;20031;-64
2022/11/03 08:21:11;;;;;;;6.00;4.32;;;;;;;10.88;77.94;100036.03;5065870;28;20028;-66
2022/11/03 08:23:36;;;;;;;1.42;1.33;;;;;;;10.90;78.04;100036.88;5065603;28;20105;-65
2022/11/03 08:26:02;;;;;;;0.38;0.38;;;;;;;11.19;76.61;100036.41;5065682;28;20084;-67
2022/11/03 08:28:28;;;;;;;0.40;0.40;;;;;;;11.06;76.64;100034.03;5065478;28;20031;-66
2022/11/03 08:30:53;;;;;;;0.38;0.38;;;;;;;11.00;77.52;100042.78;5065525;28;20092;-69
2022/11/03 08:33:18;;;;;;;0.40;0.40;;;;;;;11.00;76.75;100034.13;5065910;28;20076;-66
2022/11/03 08:35:44;;;;;;;0.40;0.40;;;;;;;10.90;77.43;100029.09;5065413;28;20033;-66
2022/11/03 08:38:09;;;;;;;0.50;0.50;;;;;;;10.94;77.70;100029.91;5065587;28;20035;-65
2022/11/03 08:40:34;;;;;;;5.10;1.58;;;;;;;10.91;78.15;100041.19;5065580;28;20025;-65
2022/11/03 08:43:01;;;;;;;0.40;0.40;;;;;;;10.97;77.45;100042.84;5065282;28;20029;-66
2022/11/03 08:45:28;;;;;;;0.40;0.40;;;;;;;11.15;76.81;100044.25;5065131;28;20488;-67
2022/11/03 08:47:54;;;;;;;1.05;1.05;;;;;;;11.02;76.96;100029.78;5065463;28;20382;-67
2022/11/03 08:50:20;;;;;;;2.65;2.45;;;;;;;10.96;77.46;100014.28;5065373;28;20128;-65
2022/11/03 08:52:45;;;;;;;0.30;0.30;;;;;;;10.95;77.42;100023.81;5065348;28;20025;-66
2022/11/03 08:55:11;;;;;;;0.40;0.40;;;;;;;11.11;77.19;100015.75;5065360;28;20050;-66
2022/11/03 08:57:36;;;;;;;0.40;0.40;;;;;;;11.21;76.43;100021.66;5065356;28;20028;-65
2022/11/03 09:00:04;;;;;;;0.40;0.40;;;;;;;11.05;77.27;100023.66;5065159;28;20446;-66
2022/11/03 09:02:30;;;;;;;0.60;0.60;;;;;;;11.23;76.66;100015.53;5065193;28;20053;-68
2022/11/03 09:04:55;;;;;;;0.40;0.40;;;;;;;11.08;77.00;100008.88;5065192;28;20032;-66
2022/11/03 09:07:20;;;;;;;0.45;0.45;;;;;;;11.13;76.61;100012.25;5065134;28;20029;-66
2022/11/03 09:09:46;;;;;;;0.50;0.50;;;;;;;11.11;76.79;100001.03;5065297;28;20105;-65
2022/11/03 09:12:11;;;;;;;0.75;0.75;;;;;;;11.19;76.31;100000.03;5067042;28;20392;-67
2022/11/03 09:14:37;;;;;;;1.25;1.25;;;;;;;11.11;76.77;100003.63;5069194;28;20025;-67
2022/11/03 09:17:03;;;;;;;0.30;0.30;;;;;;;11.10;77.13;100008.88;5069272;28;20020;-66
2022/11/03 09:19:28;;;;;;;0.40;0.40;;;;;;;11.03;77.40;100008.09;5069246;28;20028;-65
2022/11/03 09:21:53;;;;;;;1.10;1.10;;;;;;;11.13;76.97;100012.25;5069150;28;20099;-66
2022/11/03 09:24:19;;;;;;;0.40;0.40;;;;;;;11.08;77.24;99993.31;5069045;28;20040;-66
2022/11/03 09:26:44;;;;;;;0.40;0.40;;;;;;;11.08;77.55;99993.31;5068904;28;20037;-65
2022/11/03 09:29:09;;;;;;;0.50;0.50;;;;;;;11.14;77.32;99985.41;5069024;28;20033;-67
2022/11/03 09:31:35;;;;;;;0.50;0.50;;;;;;;11.12;77.65;99981.97;5068830;28;20075;-65
2022/11/03 09:34:00;;;;;;;0.40;0.40;;;;;;;11.25;77.01;99992.13;5069107;28;20084;-66
2022/11/03 09:36:26;;;;;;;0.40;0.40;;;;;;;11.19;77.24;99976.66;5068870;28;20021;-66
2022/11/03 09:38:51;;;;;;;0.40;0.40;;;;;;;11.15;77.53;99987.09;5068779;28;20510;-66
2022/11/03 09:41:16;;;;;;;0.40;0.40;;;;;;;11.21;77.80;99980.09;5068682;28;20051;-66
2022/11/03 09:43:46;;;;;;;0.40;0.40;;;;;;;11.21;77.64;99986.16;5068680;28;20033;-66
2022/11/03 09:46:14;;;;;;;0.40;0.40;;;;;;;11.26;77.20;99980.88;5068587;28;20091;-66
2022/11/03 09:48:40;;;;;;;0.40;0.40;;;;;;;11.30;77.35;99989.44;5068520;28;20038;-65
2022/11/03 09:51:09;;;;;;;0.40;0.40;;;;;;;11.28;77.40;99998.13;5068614;28;20031;-66
2022/11/03 09:53:35;;;;;;;0.40;0.40;;;;;;;11.33;77.25;99990.25;5068549;28;20056;-65
2022/11/03 09:56:00;;;;;;;0.40;0.40;;;;;;;11.49;76.27;99982.16;5068723;28;20361;-67
2022/11/03 09:58:25;;;;;;;0.40;0.40;;;;;;;11.48;75.50;99983.94;5068432;28;20135;-66
2022/11/03 10:00:51;;;;;;;0.40;0.40;;;;;;;11.42;75.71;99985.78;5068349;28;20082;-68
2022/11/03 10:03:16;;;;;;;0.30;0.30;;;;;;;11.36;75.58;99989.34;5068178;28;20069;-66
2022/11/03 10:05:46;;;;;;;0.40;0.40;;;;;;;11.15;76.54;99989.69;5068369;28;20021;-65
2022/11/03 10:08:25;;;;;;;0.43;0.43;;;;;;;11.12;76.63;99988.88;5068371;28;20024;-66
2022/11/03 10:10:51;;;;;;;0.40;0.40;;;;;;;11.17;76.95;99978.44;5068581;28;20373;-67
2022/11/03 10:13:36;;;;;;;0.40;0.40;;;;;;;11.22;76.92;99987.00;5068025;28;20520;-68
2022/11/03 10:16:04;;;;;;;0.75;0.75;;;;;;;11.21;76.89;99983.56;5068090;28;20028;-67
2022/11/03 10:18:30;;;;;;;0.40;0.40;;;;;;;11.38;76.62;99982.38;5068296;28;20079;-69
2022/11/03 10:21:02;;;;;;;0.40;0.40;;;;;;;11.25;76.78;99977.41;5068075;28;20036;-65
2022/11/03 10:23:27;;;;;;;;;;;;;;;11.22;76.75;99987.84;5067932;28;20107;-65
2022/11/03 10:26:06;;;;;;;0.40;0.40;;;;;;;11.27;76.51;99995.56;5068175;28;19909;-67
2022/11/03 10:28:32;;;;;;;0.40;0.40;;;;;;;11.33;76.35;99979.88;5068209;28;20289;-66
2022/11/03 10:31:00;;;;;;;0.40;0.40;;;;;;;11.40;76.62;99971.09;5067991;28;20071;-67
2022/11/03 10:33:37;;;;;;;0.47;0.47;;;;;;;11.42;75.74;99967.59;5067980;28;20017;-66
2022/11/03 10:36:14;;;;;;;0.40;0.40;;;;;;;11.39;75.78;99991.88;5067871;28;20376;-67
2022/11/03 10:38:40;;;;;;;0.50;0.50;;;;;;;11.30;76.64;99992.03;5067576;28;20024;-67
2022/11/03 10:41:16;;;;;;;0.50;0.50;;;;;;;11.38;76.21;99985.84;5067752;28;20031;-66
2022/11/03 10:43:43;;;;;;;0.43;0.43;;;;;;;11.37;75.92;99986.69;5067503;28;20013;-68
2022/11/03 10:46:17;;;;;;;0.40;0.40;;;;;;;11.28;76.51;99985.16;5067512;28;20104;-68
2022/11/03 10:48:43;;;;;;;0.60;0.60;;;;;;;11.25;76.62;99984.34;5067761;28;20044;-67
2022/11/03 10:51:12;;;;;;;0.40;0.40;;;;;;;11.31;76.49;99996.38;5067402;28;20036;-67
2022/11/03 10:53:38;;;;;;;0.60;0.60;;;;;;;11.40;76.52;99997.06;5067417;28;20086;-68
2022/11/03 10:56:04;;;;;;;0.40;0.40;;;;;;;11.26;76.86;99988.66;5067610;28;20540;-66
2022/11/03 10:58:30;;;;;;;0.40;0.40;;;;;;;11.33;76.69;99990.25;5067153;28;20017;-66
2022/11/03 11:00:56;;;;;;;0.73;0.73;;;;;;;11.35;76.12;99975.50;5067199;28;20021;-65
2022/11/03 11:03:21;;;;;;;0.40;0.40;;;;;;;11.37;76.88;99975.47;5067129;28;20084;-66
2022/11/03 11:05:47;;;;;;;0.40;0.40;;;;;;;11.56;75.86;99983.78;5067247;28;20366;-67
2022/11/03 11:08:16;;;;;;;0.40;0.40;;;;;;;11.63;75.48;99974.97;5066980;28;20029;-68
2022/11/03 11:10:44;;;;;;;0.40;0.40;;;;;;;11.38;76.18;99975.44;5066973;28;20029;-66
2022/11/03 11:13:20;;;;;;;0.40;0.40;;;;;;;11.43;76.15;99977.94;5066909;28;20032;-68
2022/11/03 11:15:50;;;;;;;1.52;1.52;;;;;;;11.38;75.96;99980.63;5066827;28;20029;-67
2022/11/03 11:18:27;;;;;;;0.40;0.40;;;;;;;11.43;75.69;99985.75;5067040;28;20032;-65
2022/11/03 11:21:13;;;;;;;0.40;0.40;;;;;;;11.35;76.18;99993.69;5066574;28;20090;-67
2022/11/03 11:23:40;;;;;;;0.40;0.40;;;;;;;11.35;76.25;99985.91;5066303;28;20052;-67
2022/11/03 11:26:08;;;;;;;0.47;0.47;;;;;;;11.33;76.70;99990.25;5066803;28;20042;-67
2022/11/03 11:28:38;;;;;;;0.40;0.40;;;;;;;11.37;76.71;99994.50;5065426;28;20445;-67
2022/11/03 11:31:25;;;;;;;0.30;0.30;;;;;;;11.35;76.22;99985.91;5066004;28;20116;-66
2022/11/03 11:34:09;;;;;;;0.50;0.50;;;;;;;11.38;76.22;99974.56;5065844;28;20021;-67
2022/11/03 11:36:46;;;;;;;0.50;0.50;;;;;;;11.40;76.22;99976.28;5066488;28;20032;-68
2022/11/03 11:39:33;;;;;;;0.75;0.75;;;;;;;11.35;76.10;99975.50;5066532;28;20047;-66
2022/11/03 11:42:11;;;;;;;0.40;0.40;;;;;;;11.46;75.61;99969.22;5066317;28;20025;-67
2022/11/03 11:44:42;;;;;;;0.40;0.40;;;;;;;11.38;75.83;99967.66;5066167;28;20051;-66
2022/11/03 11:47:45;;;;;;;14.65;5.63;;;;;;;11.44;75.46;99960.63;5066740;28;20132;-67
2022/11/03 11:50:13;;;;;;;0.40;0.40;;;;;;;11.37;76.07;99965.06;5066430;28;20055;-68
2022/11/03 11:52:41;;;;;;;0.40;0.40;;;;;;;11.46;75.60;99964.03;5066425;28;20032;-68
2022/11/03 11:55:37;;;;;;;0.40;0.40;;;;;;;11.38;76.45;99959.84;5066585;28;20106;-67
2022/11/03 11:58:03;;;;;;;0.85;0.85;;;;;;;11.48;75.97;99967.47;5063607;28;20049;-68
2022/11/03 12:00:32;;;;;;;0.93;0.93;;;;;;;11.37;76.28;99970.28;5065810;28;20055;-68